Time;durP1;ratioP1;P1;durP2;ratioP2;P2;SDS_P1;SDS_P2;PMS_P1;PMS_P2;Temp;Humidity;BMP_temperature;BMP_pressure;BME280_temperature;BME280_humidity;BME280_pressure;Samples;Min_cycle;Max_cycle;Signal;HPM_P1;HPM_P2
2023/03/25 00:02:22;;;;;;;3.80;1.00;;;;;;;13.93;42.96;102707.38;5043351;28;20041;-44
2023/03/25 00:04:52;;;;;;;4.97;1.10;;;;;;;13.97;43.16;102699.78;5048172;28;20113;-46
2023/03/25 00:07:20;;;;;;;5.32;1.10;;;;;;;13.97;43.62;102689.84;5055300;28;20027;-46
2023/03/25 00:09:47;;;;;;;3.50;1.02;;;;;;;14.02;44.33;102699.22;5059270;28;20067;-47
2023/03/25 00:12:15;;;;;;;5.25;1.38;;;;;;;13.92;44.81;102694.09;5043964;28;20058;-46
2023/03/25 00:14:42;;;;;;;3.80;1.48;;;;;;;13.80;45.11;102699.09;5052821;28;20028;-43
2023/03/25 00:17:09;;;;;;;6.82;1.60;;;;;;;13.63;44.92;102705.63;5052269;28;20032;-44
2023/03/25 00:19:36;;;;;;;13.68;1.77;;;;;;;13.35;45.65;102706.19;5052982;28;20094;-43
2023/03/25 00:22:02;;;;;;;5.45;1.20;;;;;;;13.36;46.01;102697.09;5048981;28;20028;-46
2023/03/25 00:24:28;;;;;;;7.78;1.42;;;;;;;13.39;46.31;102702.13;5031314;28;20030;-46
2023/03/25 00:26:54;;;;;;;4.50;1.33;;;;;;;13.38;45.46;102710.34;5031933;28;20349;-48
2023/03/25 00:29:21;;;;;;;8.68;1.55;;;;;;;13.08;46.55;102715.56;5031833;28;20036;-49
2023/03/25 00:31:47;;;;;;;4.25;1.27;;;;;;;13.02;46.62;102713.56;5045927;28;20025;-47
2023/03/25 00:34:13;;;;;;;7.70;1.40;;;;;;;13.16;47.09;102712.84;5050073;28;20074;-47
2023/03/25 00:36:42;;;;;;;5.43;1.45;;;;;;;13.11;47.38;102711.69;5038396;28;20029;-46
2023/03/25 00:39:09;;;;;;;4.28;1.40;;;;;;;13.01;48.04;102713.75;5045480;28;20475;-47
2023/03/25 00:41:36;;;;;;;6.03;1.27;;;;;;;12.85;48.25;102712.00;5031676;28;20072;-45
2023/03/25 00:44:03;;;;;;;10.63;1.48;;;;;;;12.80;48.37;102719.75;5044657;28;20482;-44
2023/03/25 00:46:31;;;;;;;9.32;1.52;;;;;;;12.56;48.63;102709.94;5051027;28;20033;-48
2023/03/25 00:48:58;;;;;;;9.15;1.50;;;;;;;12.47;49.81;102705.59;5042672;28;20036;-45
2023/03/25 00:51:26;;;;;;;7.78;1.60;;;;;;;12.35;49.96;102714.03;5044708;28;20119;-48
2023/03/25 00:53:54;;;;;;;4.75;1.52;;;;;;;12.32;51.13;102713.50;5046844;28;20032;-42
2023/03/25 00:56:21;;;;;;;6.05;1.50;;;;;;;12.34;49.56;102720.41;5032399;28;20029;-41
2023/03/25 00:58:48;;;;;;;8.00;1.50;;;;;;;12.32;49.84;102721.56;5046651;28;20094;-41
2023/03/25 01:03:02;;;;;;;5.70;1.20;;;;;;;12.13;50.51;102715.56;5101061;27;20433;-40
2023/03/25 01:05:29;;;;;;;6.93;1.50;;;;;;;12.05;51.57;102699.50;5096471;28;20449;-42
2023/03/25 01:07:56;;;;;;;9.65;1.63;;;;;;;12.11;51.38;102714.91;5101835;28;20030;-42
2023/03/25 01:10:22;;;;;;;3.85;1.38;;;;;;;11.92;51.95;102703.69;5111075;28;20394;-41
2023/03/25 01:12:49;;;;;;;5.03;1.42;;;;;;;11.75;51.73;102700.97;5110221;27;20103;-41
2023/03/25 01:15:15;;;;;;;5.68;1.40;;;;;;;11.57;52.08;102706.53;5109576;28;20104;-41
2023/03/25 01:17:41;;;;;;;5.10;1.20;;;;;;;11.61;52.01;102697.16;5109715;28;20110;-42
2023/03/25 01:20:08;;;;;;;5.68;1.58;;;;;;;11.48;52.51;102707.50;5109615;28;20372;-41
2023/03/25 01:22:35;;;;;;;9.43;1.48;;;;;;;11.43;52.62;102717.06;5109463;28;20039;-41
2023/03/25 01:25:01;;;;;;;8.75;1.45;;;;;;;11.32;53.02;102715.53;5109381;28;20024;-43
2023/03/25 01:27:29;;;;;;;7.00;1.45;;;;;;;11.24;53.32;102719.06;5109158;28;20020;-43
2023/03/25 01:29:56;;;;;;;5.78;1.60;;;;;;;11.20;53.65;102712.34;5109319;28;20031;-41
2023/03/25 01:32:22;;;;;;;5.55;1.27;;;;;;;11.22;53.77;102712.19;5109382;28;20028;-42
2023/03/25 01:34:49;;;;;;;5.22;1.65;;;;;;;11.15;54.17;102720.03;5109346;28;20058;-41
2023/03/25 01:37:16;;;;;;;8.48;1.95;;;;;;;11.05;53.84;102717.50;5109044;28;20506;-41
2023/03/25 01:39:43;;;;;;;7.88;1.88;;;;;;;10.92;54.93;102725.16;5108981;28;20032;-41
2023/03/25 01:42:10;;;;;;;6.72;1.60;;;;;;;10.86;55.11;102719.59;5109419;28;20085;-42
2023/03/25 01:44:37;;;;;;;6.90;1.52;;;;;;;10.91;55.58;102715.44;5109221;28;20039;-41
2023/03/25 01:47:05;;;;;;;9.43;1.67;;;;;;;10.87;55.60;102716.75;5098853;28;20581;-41
2023/03/25 01:49:43;;;;;;;5.13;1.45;;;;;;;10.87;56.34;102721.28;5088265;28;20037;-41
2023/03/25 01:52:21;;;;;;;6.65;1.35;;;;;;;10.88;56.34;102728.31;5108094;28;20093;-43
2023/03/25 01:54:51;;;;;;;10.23;2.05;;;;;;;10.76;56.82;102720.56;5098754;28;20020;-42
2023/03/25 01:57:21;;;;;;;1.80;1.05;;;;;;;10.65;57.53;102720.03;5089469;28;20108;-41
2023/03/25 01:59:49;;;;;;;7.78;1.60;;;;;;;10.68;57.23;102722.38;5088587;28;20063;-41
2023/03/25 02:02:17;;;;;;;9.70;1.90;;;;;;;10.61;57.77;102738.25;5115033;28;20052;-41
2023/03/25 02:04:57;;;;;;;5.43;1.63;;;;;;;10.62;57.13;102729.22;5108038;28;20031;-40
2023/03/25 02:07:31;;;;;;;7.45;1.48;;;;;;;10.47;58.08;102730.81;5102014;28;20024;-43
2023/03/25 02:10:03;;;;;;;8.23;1.80;;;;;;;10.38;57.45;102708.50;5093386;28;20032;-44
2023/03/25 02:12:30;;;;;;;6.63;1.60;;;;;;;10.35;58.07;102713.34;5104662;28;20032;-43
2023/03/25 02:14:59;;;;;;;6.82;1.90;;;;;;;10.29;58.09;102710.31;5094864;28;20058;-43
2023/03/25 02:17:34;;;;;;;5.60;1.40;;;;;;;10.27;58.38;102720.34;5093987;28;20024;-44
2023/03/25 02:20:57;;;;;;;8.80;2.15;;;;;;;10.36;58.48;102715.03;5095319;28;20036;-44
2023/03/25 02:23:58;;;;;;;10.40;2.17;;;;;;;10.26;58.31;102712.44;5032458;28;20128;-43
2023/03/25 02:27:04;;;;;;;6.00;1.52;;;;;;;10.16;58.16;102717.91;5032083;28;20036;-45
2023/03/25 02:29:48;;;;;;;4.72;1.67;;;;;;;10.18;58.44;102715.06;5094940;28;20032;-44
2023/03/25 02:32:22;;;;;;;6.80;1.50;;;;;;;10.19;58.62;102720.25;5094978;28;20502;-47
2023/03/25 02:35:24;;;;;;;9.73;1.90;;;;;;;10.10;58.80;102718.50;5094530;28;20032;-44
2023/03/25 02:38:18;;;;;;;8.23;1.80;;;;;;;10.24;58.28;102717.97;5046884;28;20094;-43
2023/03/25 02:41:00;;;;;;;8.30;2.03;;;;;;;10.29;56.92;102714.81;5070662;28;20489;-44
2023/03/25 02:43:33;;;;;;;9.00;2.08;;;;;;;10.18;56.55;102712.38;5094557;28;20024;-44
2023/03/25 02:46:07;;;;;;;7.40;2.45;;;;;;;10.02;57.73;102711.28;5074292;28;20028;-45
2023/03/25 02:48:56;;;;;;;8.40;2.08;;;;;;;10.17;57.43;102716.06;5074063;28;20445;-43
2023/03/25 02:51:33;;;;;;;13.25;1.92;;;;;;;10.07;56.44;102708.13;5042910;28;20123;-44
2023/03/25 02:54:07;;;;;;;6.50;2.15;;;;;;;9.91;54.56;102706.19;5090051;28;20127;-43
2023/03/25 02:56:36;;;;;;;8.65;2.30;;;;;;;9.86;53.83;102711.16;5094303;28;20028;-43
2023/03/25 02:59:04;;;;;;;9.02;2.20;;;;;;;9.71;53.64;102720.72;5094345;28;20032;-47
2023/03/25 03:01:33;;;;;;;11.40;2.30;;;;;;;9.65;53.92;102730.19;5093227;28;20519;-43
2023/03/25 03:04:00;;;;;;;9.80;2.78;;;;;;;9.51;54.54;102728.06;5094734;28;20040;-43
2023/03/25 03:06:27;;;;;;;8.85;2.13;;;;;;;9.43;55.45;102719.97;5094187;28;20025;-44
2023/03/25 03:09:08;;;;;;;9.95;2.70;;;;;;;9.29;56.01;102723.19;5094176;28;20020;-44
2023/03/25 03:11:36;;;;;;;6.95;2.30;;;;;;;9.16;56.92;102729.72;5110867;28;20055;-43
2023/03/25 03:14:34;;;;;;;12.98;2.45;;;;;;;9.14;57.45;102715.66;5094015;28;20113;-43
2023/03/25 03:17:17;;;;;;;8.02;2.53;;;;;;;9.01;58.47;102709.00;5093506;28;20020;-43
2023/03/25 03:19:54;;;;;;;7.57;2.50;;;;;;;8.99;58.50;102711.81;5093842;28;20040;-44
2023/03/25 03:22:39;;;;;;;10.52;2.55;;;;;;;8.88;59.49;102699.53;5093224;28;20028;-43
2023/03/25 03:25:20;;;;;;;12.43;3.65;;;;;;;8.92;59.20;102705.41;5093037;28;20024;-45
2023/03/25 03:27:55;;;;;;;12.38;2.72;;;;;;;8.93;59.20;102701.72;5103924;28;20513;-43
2023/03/25 03:30:28;;;;;;;10.83;2.67;;;;;;;8.87;59.38;102703.16;5093593;28;20028;-43
2023/03/25 03:32:59;;;;;;;7.93;2.88;;;;;;;8.92;59.38;102706.25;5093664;28;20451;-43
2023/03/25 03:35:37;;;;;;;12.95;2.78;;;;;;;8.98;59.06;102712.81;5093583;28;20024;-47
2023/03/25 03:38:13;;;;;;;13.07;3.17;;;;;;;8.77;59.74;102715.72;5093228;28;20089;-43
2023/03/25 03:40:44;;;;;;;11.40;3.17;;;;;;;8.90;59.61;102728.75;5093458;28;20123;-44
2023/03/25 03:43:16;;;;;;;11.18;3.25;;;;;;;8.85;59.68;102741.72;5092986;28;20023;-42
2023/03/25 03:45:47;;;;;;;9.90;2.80;;;;;;;8.69;60.99;102742.34;5073199;28;20487;-43
2023/03/25 03:48:22;;;;;;;9.50;3.20;;;;;;;8.59;60.71;102745.03;5072861;28;20358;-43
2023/03/25 03:51:06;;;;;;;12.80;3.17;;;;;;;8.93;60.36;102744.47;5073043;28;20374;-45
2023/03/25 03:53:38;;;;;;;14.68;3.17;;;;;;;9.17;58.90;102742.09;5077463;28;20448;-42
2023/03/25 03:56:12;;;;;;;9.73;2.88;;;;;;;9.08;59.42;102736.81;5093001;28;20434;-43
2023/03/25 03:58:41;;;;;;;6.82;2.25;;;;;;;9.37;58.94;102749.97;5093176;28;20020;-43
2023/03/25 04:01:18;;;;;;;7.63;2.28;;;;;;;9.25;59.15;102739.50;5093505;28;20553;-47
2023/03/25 04:03:53;;;;;;;12.82;2.83;;;;;;;9.24;59.14;102742.31;5092978;28;20028;-44
2023/03/25 04:06:55;;;;;;;11.60;2.85;;;;;;;9.14;58.75;102747.72;5083920;28;20020;-45
2023/03/25 04:09:27;;;;;;;9.10;3.03;;;;;;;9.29;58.41;102739.22;5078909;28;20032;-43
2023/03/25 04:12:02;;;;;;;11.35;2.50;;;;;;;9.24;58.48;102750.34;5075056;28;20123;-44
2023/03/25 04:14:29;;;;;;;9.02;2.60;;;;;;;9.36;57.75;102748.28;5087611;28;20108;-43
2023/03/25 04:16:55;;;;;;;9.32;3.10;;;;;;;9.04;59.16;102743.44;5079803;28;20040;-44
2023/03/25 04:19:22;;;;;;;12.23;3.42;;;;;;;8.91;59.06;102739.28;5097943;28;20376;-44
2023/03/25 04:21:48;;;;;;;10.25;2.85;;;;;;;9.00;58.51;102737.56;5076131;28;20090;-43
2023/03/25 04:24:18;;;;;;;9.68;2.83;;;;;;;9.12;58.39;102733.69;5084334;28;20020;-44
2023/03/25 04:26:46;;;;;;;8.25;2.67;;;;;;;9.16;57.49;102737.75;5078321;28;20032;-46
2023/03/25 04:29:12;;;;;;;7.57;2.20;;;;;;;9.04;58.29;102733.56;5083393;28;20024;-44
2023/03/25 04:31:45;;;;;;;8.75;3.10;;;;;;;9.03;58.55;102733.75;5071367;28;20032;-46
2023/03/25 04:34:15;;;;;;;8.88;2.50;;;;;;;9.10;58.18;102737.47;5085290;28;20024;-44
2023/03/25 04:36:45;;;;;;;12.13;2.80;;;;;;;9.00;57.80;102734.88;5070986;28;20025;-43
2023/03/25 04:39:11;;;;;;;12.98;3.22;;;;;;;8.88;57.61;102744.06;5083008;28;20028;-45
2023/03/25 04:41:38;;;;;;;11.50;3.13;;;;;;;8.80;57.81;102735.97;5090645;28;20438;-45
2023/03/25 04:44:06;;;;;;;9.20;2.70;;;;;;;8.72;57.62;102732.22;5084212;28;20062;-43
2023/03/25 04:46:35;;;;;;;8.63;2.85;;;;;;;8.74;57.18;102729.38;5075119;28;20059;-44
2023/03/25 04:49:04;;;;;;;10.18;2.90;;;;;;;8.82;56.99;102733.97;5074660;28;20028;-42
2023/03/25 04:51:32;;;;;;;13.82;3.03;;;;;;;8.76;56.79;102724.72;5085475;28;20040;-43
2023/03/25 04:53:58;;;;;;;10.95;3.15;;;;;;;8.77;57.20;102722.91;5080823;28;20038;-44
2023/03/25 04:56:25;;;;;;;14.10;2.47;;;;;;;8.68;57.11;102724.66;5087023;28;20040;-43
2023/03/25 04:58:52;;;;;;;9.88;2.40;;;;;;;8.72;56.75;102728.72;5071763;28;20052;-42
2023/03/25 05:01:30;;;;;;;10.13;2.80;;;;;;;8.71;56.77;102735.84;5071551;28;20060;-43
2023/03/25 05:04:03;;;;;;;7.88;2.60;;;;;;;8.75;56.42;102730.22;5074454;28;20086;-45
2023/03/25 05:06:34;;;;;;;12.77;2.80;;;;;;;8.65;56.13;102738.28;5071319;28;20086;-42
2023/03/25 05:09:03;;;;;;;6.72;2.58;;;;;;;8.65;54.90;102731.09;5079363;28;20030;-45
2023/03/25 05:11:31;;;;;;;5.82;2.30;;;;;;;8.68;54.92;102736.16;5079220;28;20038;-44
2023/03/25 05:13:57;;;;;;;5.63;2.55;;;;;;;8.70;54.51;102742.19;5089315;28;20073;-43
2023/03/25 05:16:23;;;;;;;9.48;2.47;;;;;;;8.73;54.54;102744.56;5088903;28;20192;-43
2023/03/25 05:18:50;;;;;;;10.05;2.70;;;;;;;8.76;54.09;102747.94;5095419;28;20488;-43
2023/03/25 05:21:16;;;;;;;10.18;2.65;;;;;;;8.68;55.45;102736.16;5083732;28;20104;-42
2023/03/25 05:23:43;;;;;;;7.90;2.75;;;;;;;8.73;54.99;102746.41;5093172;28;20028;-43
2023/03/25 05:26:11;;;;;;;7.82;2.35;;;;;;;8.74;55.33;102748.09;5085271;28;20036;-42
2023/03/25 05:28:38;;;;;;;9.02;3.17;;;;;;;8.76;55.82;102746.09;5097795;28;20110;-43
2023/03/25 05:31:07;;;;;;;9.65;2.90;;;;;;;8.62;55.22;102741.25;5070347;28;20060;-42
2023/03/25 05:33:44;;;;;;;8.80;2.40;;;;;;;8.60;55.15;102732.53;5080816;28;20033;-43
2023/03/25 05:36:11;;;;;;;10.35;2.75;;;;;;;8.64;54.57;102739.25;5089367;28;20031;-42
2023/03/25 05:38:45;;;;;;;6.68;2.50;;;;;;;8.51;55.30;102741.44;5073969;28;20423;-44
2023/03/25 05:41:15;;;;;;;8.32;2.60;;;;;;;8.52;54.92;102727.94;5080657;28;20031;-43
2023/03/25 05:43:46;;;;;;;12.68;2.60;;;;;;;8.41;55.65;102728.97;5101581;28;20038;-42
2023/03/25 05:46:14;;;;;;;12.13;2.60;;;;;;;8.51;55.96;102722.75;5084533;28;20023;-43
2023/03/25 05:48:40;;;;;;;9.80;2.55;;;;;;;8.55;55.38;102718.78;5094297;28;20032;-43
2023/03/25 05:51:20;;;;;;;12.85;2.88;;;;;;;8.55;54.24;102714.31;5081432;28;20066;-43
2023/03/25 05:53:50;;;;;;;10.95;2.60;;;;;;;8.51;55.11;102715.59;5104240;28;20082;-43
2023/03/25 05:56:18;;;;;;;8.60;2.53;;;;;;;8.31;56.13;102711.25;5097251;28;20031;-43
2023/03/25 05:58:48;;;;;;;12.43;3.00;;;;;;;8.32;55.55;102718.28;5094346;28;20036;-43
2023/03/25 06:01:16;;;;;;;12.20;2.83;;;;;;;8.31;55.83;102719.25;5085654;28;20047;-42
2023/03/25 06:03:43;;;;;;;10.48;3.13;;;;;;;8.37;55.33;102734.72;5105828;28;20111;-42
2023/03/25 06:06:17;;;;;;;7.88;2.88;;;;;;;8.38;55.00;102731.94;5094470;28;20608;-43
2023/03/25 06:08:50;;;;;;;9.38;3.00;;;;;;;8.39;55.39;102730.09;5094588;28;20020;-44
2023/03/25 06:11:17;;;;;;;9.63;2.65;;;;;;;8.38;55.48;102717.72;5083983;28;20028;-42
2023/03/25 06:13:50;;;;;;;9.18;3.03;;;;;;;8.37;55.61;102726.72;5088223;28;20028;-45
2023/03/25 06:16:19;;;;;;;9.20;2.28;;;;;;;8.32;55.61;102724.44;5088264;28;20028;-43
2023/03/25 06:18:54;;;;;;;12.95;2.65;;;;;;;8.20;56.41;102723.78;5091714;28;20699;-44
2023/03/25 06:21:21;;;;;;;6.97;2.28;;;;;;;8.35;55.81;102721.50;5090148;28;20115;-44
2023/03/25 06:23:49;;;;;;;8.60;2.25;;;;;;;8.24;56.52;102718.16;5086930;28;20459;-44
2023/03/25 06:26:20;;;;;;;14.27;2.75;;;;;;;8.44;56.42;102712.66;5077178;28;20016;-43
2023/03/25 06:28:47;;;;;;;11.45;2.65;;;;;;;8.36;56.25;102709.03;5081901;28;20039;-44
2023/03/25 06:31:19;;;;;;;8.57;2.92;;;;;;;8.25;56.86;102711.84;5105794;28;20115;-44
2023/03/25 06:33:47;;;;;;;8.05;2.33;;;;;;;8.32;56.42;102715.59;5072633;28;20025;-44
2023/03/25 06:36:17;;;;;;;7.18;2.33;;;;;;;8.40;55.88;102707.75;5078003;28;20024;-43
2023/03/25 06:38:48;;;;;;;15.23;2.75;;;;;;;8.35;55.88;102701.97;5074200;28;20020;-44
2023/03/25 06:41:19;;;;;;;10.02;2.05;;;;;;;8.37;56.54;102700.88;5091480;28;20059;-44
2023/03/25 06:43:46;;;;;;;10.05;2.03;;;;;;;8.39;55.81;102701.59;5074377;28;20025;-42
2023/03/25 06:46:12;;;;;;;6.95;1.92;;;;;;;8.30;56.37;102702.41;5085102;28;20024;-43
2023/03/25 06:48:39;;;;;;;7.68;2.25;;;;;;;8.27;56.02;102696.53;5093876;28;20464;-44
2023/03/25 06:51:05;;;;;;;7.88;2.60;;;;;;;8.37;56.08;102692.88;5091488;28;20066;-43
2023/03/25 06:53:31;;;;;;;7.85;2.75;;;;;;;8.17;56.85;102688.56;5092687;28;20028;-43
2023/03/25 06:55:58;;;;;;;6.13;2.60;;;;;;;8.19;57.18;102689.25;5093046;28;20035;-43
2023/03/25 06:58:24;;;;;;;9.18;2.45;;;;;;;8.20;57.11;102690.94;5077461;28;20029;-42
2023/03/25 07:00:54;;;;;;;8.20;1.92;;;;;;;8.09;57.99;102705.28;5089062;28;20058;-42
2023/03/25 07:03:20;;;;;;;5.72;2.10;;;;;;;8.15;57.36;102702.03;5104293;28;20564;-45
2023/03/25 07:05:49;;;;;;;5.57;2.50;;;;;;;8.08;57.35;102695.59;5093268;28;20574;-43
2023/03/25 07:08:16;;;;;;;8.35;2.47;;;;;;;8.20;56.93;102699.78;5097583;28;20043;-43
2023/03/25 07:10:42;;;;;;;13.40;2.70;;;;;;;8.07;57.46;102699.25;5099782;28;20016;-43
2023/03/25 07:13:09;;;;;;;7.10;2.45;;;;;;;8.00;58.07;102705.31;5093595;28;20032;-45
2023/03/25 07:15:35;;;;;;;12.25;2.50;;;;;;;8.07;57.37;102690.41;5089277;28;20036;-43
2023/03/25 07:18:02;;;;;;;9.63;2.38;;;;;;;8.06;58.03;102702.06;5086606;28;20064;-42
2023/03/25 07:20:28;;;;;;;5.82;1.90;;;;;;;8.15;57.38;102699.38;5082205;28;20028;-43
2023/03/25 07:22:54;;;;;;;10.40;2.45;;;;;;;8.11;57.42;102702.50;5093407;28;20032;-44
2023/03/25 07:25:21;;;;;;;12.13;2.50;;;;;;;8.15;57.15;102691.34;5097407;28;20126;-44
2023/03/25 07:27:48;;;;;;;8.18;2.33;;;;;;;7.96;57.76;102685.25;5095462;28;20102;-43
2023/03/25 07:30:14;;;;;;;4.18;2.03;;;;;;;8.01;57.28;102685.66;5076056;28;20030;-42
2023/03/25 07:32:40;;;;;;;7.78;2.20;;;;;;;7.88;57.51;102684.16;5093199;28;20357;-44
2023/03/25 07:35:08;;;;;;;10.57;2.72;;;;;;;7.92;57.94;102692.69;5083788;28;20058;-43
2023/03/25 07:37:34;;;;;;;10.15;2.05;;;;;;;7.96;58.33;102701.25;5072567;28;20017;-43
2023/03/25 07:40:01;;;;;;;14.25;2.50;;;;;;;7.86;58.45;102693.25;5078179;28;20047;-42
2023/03/25 07:42:27;;;;;;;7.75;2.50;;;;;;;8.00;57.99;102698.16;5095034;28;20031;-44
2023/03/25 07:44:53;;;;;;;8.93;2.30;;;;;;;7.84;58.32;102698.75;5090206;28;20082;-42
2023/03/25 07:47:19;;;;;;;8.95;2.10;;;;;;;7.93;58.08;102702.34;5072939;28;20481;-44
2023/03/25 07:49:46;;;;;;;5.03;1.90;;;;;;;7.93;57.46;102689.88;5072288;28;20032;-42
2023/03/25 07:52:12;;;;;;;6.03;2.30;;;;;;;7.86;57.57;102682.59;5084860;28;20452;-45
2023/03/25 07:54:39;;;;;;;9.57;2.17;;;;;;;7.80;57.67;102677.84;5076497;28;20482;-43
2023/03/25 07:57:05;;;;;;;4.65;1.73;;;;;;;7.84;57.78;102671.25;5088564;28;20052;-43
2023/03/25 07:59:31;;;;;;;9.75;2.25;;;;;;;7.88;57.49;102677.94;5088624;28;20039;-42
2023/03/25 08:01:57;;;;;;;7.50;1.90;;;;;;;7.81;58.08;102671.50;5081926;28;20051;-43
2023/03/25 08:04:24;;;;;;;8.02;2.50;;;;;;;7.82;58.10;102675.84;5085561;28;20032;-42
2023/03/25 08:06:50;;;;;;;8.40;2.22;;;;;;;7.76;57.17;102671.09;5075696;28;20029;-43
2023/03/25 08:09:16;;;;;;;5.47;1.77;;;;;;;7.76;57.20;102669.28;5092645;28;20056;-42
2023/03/25 08:11:42;;;;;;;6.32;2.00;;;;;;;7.74;57.55;102654.41;5083222;28;20061;-44
2023/03/25 08:14:09;;;;;;;7.28;1.90;;;;;;;7.77;57.62;102660.28;5076893;28;20384;-42
2023/03/25 08:16:35;;;;;;;9.23;1.90;;;;;;;7.57;58.70;102656.81;5090947;28;20161;-44
2023/03/25 08:19:01;;;;;;;6.78;1.90;;;;;;;7.69;58.10;102657.50;5101060;28;20395;-44
2023/03/25 08:21:28;;;;;;;5.72;1.90;;;;;;;7.61;57.96;102654.72;5101981;28;20035;-42
2023/03/25 08:24:01;;;;;;;6.32;1.88;;;;;;;7.65;58.57;102662.28;5088374;28;20036;-44
2023/03/25 08:26:34;;;;;;;4.70;1.67;;;;;;;7.54;58.66;102664.25;5091783;28;20032;-44
2023/03/25 08:29:01;;;;;;;6.30;1.73;;;;;;;7.55;59.03;102663.25;5090536;28;20047;-43
2023/03/25 08:31:34;;;;;;;6.47;2.28;;;;;;;7.61;57.85;102660.91;5103010;28;20024;-44
2023/03/25 08:34:02;;;;;;;5.30;1.92;;;;;;;7.61;57.56;102647.56;5091538;28;20040;-45
2023/03/25 08:36:28;;;;;;;11.88;2.08;;;;;;;7.56;57.89;102660.47;5074963;28;20020;-42
2023/03/25 08:38:55;;;;;;;6.97;2.03;;;;;;;7.55;57.98;102660.59;5071760;28;20028;-44
2023/03/25 08:41:21;;;;;;;11.05;2.13;;;;;;;7.53;57.96;102651.91;5087777;28;20024;-43
2023/03/25 08:43:49;;;;;;;7.45;1.75;;;;;;;7.54;58.52;102654.44;5075169;28;20028;-43
2023/03/25 08:46:15;;;;;;;5.55;1.60;;;;;;;7.52;57.95;102651.06;5088757;28;20024;-43
2023/03/25 08:48:42;;;;;;;4.43;1.55;;;;;;;7.47;58.14;102661.31;5085075;28;20055;-43
2023/03/25 08:51:09;;;;;;;8.43;2.05;;;;;;;7.52;58.22;102655.56;5109439;28;20042;-42
2023/03/25 08:53:35;;;;;;;6.07;1.92;;;;;;;7.56;57.71;102651.66;5102068;28;20490;-42
2023/03/25 08:56:02;;;;;;;6.72;1.55;;;;;;;7.55;58.26;102649.94;5097812;28;20035;-44
2023/03/25 08:58:28;;;;;;;3.30;1.85;;;;;;;7.47;58.83;102648.00;5098572;28;20034;-45
2023/03/25 09:00:56;;;;;;;7.28;1.65;;;;;;;7.47;57.67;102647.16;5093966;28;20119;-43
2023/03/25 09:03:23;;;;;;;9.38;2.00;;;;;;;7.44;57.96;102648.28;5084248;28;20024;-44
2023/03/25 09:05:50;;;;;;;7.20;2.20;;;;;;;7.44;58.57;102642.97;5081252;28;20028;-43
2023/03/25 09:08:16;;;;;;;4.47;1.80;;;;;;;7.46;58.44;102643.66;5082942;28;20535;-42
2023/03/25 09:10:42;;;;;;;9.07;2.10;;;;;;;7.35;58.70;102643.81;5098937;28;20032;-42
2023/03/25 09:13:09;;;;;;;18.13;1.92;;;;;;;7.32;59.06;102644.06;5075091;28;20028;-42
2023/03/25 09:15:35;;;;;;;5.50;1.90;;;;;;;7.38;58.85;102644.38;5071130;28;20025;-42
2023/03/25 09:18:02;;;;;;;6.72;1.60;;;;;;;7.32;58.54;102638.75;5107176;28;20027;-45
2023/03/25 09:20:28;;;;;;;8.38;1.95;;;;;;;7.37;58.40;102645.31;5103164;28;20472;-42
2023/03/25 09:22:54;;;;;;;9.07;2.25;;;;;;;7.33;58.58;102643.09;5090878;28;20554;-42
2023/03/25 09:25:21;;;;;;;6.07;1.85;;;;;;;7.34;59.09;102636.78;5101532;28;20032;-43
2023/03/25 09:27:47;;;;;;;6.50;1.77;;;;;;;7.28;59.32;102634.69;5098374;28;20043;-42
2023/03/25 09:30:14;;;;;;;7.82;1.98;;;;;;;7.42;58.20;102642.25;5096276;28;20063;-44
2023/03/25 09:32:40;;;;;;;11.15;2.65;;;;;;;7.33;57.89;102635.13;5099708;28;20699;-42
2023/03/25 09:35:07;;;;;;;8.07;1.85;;;;;;;7.34;59.01;102632.31;5089887;28;20345;-42
2023/03/25 09:37:33;;;;;;;4.35;1.73;;;;;;;7.28;58.84;102626.72;5102973;28;20046;-41
2023/03/25 09:40:00;;;;;;;4.20;2.00;;;;;;;7.24;59.32;102619.97;5099104;28;20055;-42
2023/03/25 09:42:59;;;;;;;8.55;2.20;;;;;;;7.27;58.03;102622.34;5109170;28;20387;-42
2023/03/25 09:45:46;;;;;;;6.22;1.90;;;;;;;7.23;57.83;102616.47;5075359;28;20182;-43
2023/03/25 09:48:34;;;;;;;4.93;1.73;;;;;;;7.22;57.88;102611.25;5074905;28;20040;-43
2023/03/25 09:51:06;;;;;;;7.28;2.03;;;;;;;7.12;58.79;102612.13;5093668;28;20036;-42
2023/03/25 09:53:47;;;;;;;4.88;1.33;;;;;;;7.17;57.96;102610.88;5087038;28;20098;-42
2023/03/25 09:56:17;;;;;;;4.30;1.63;;;;;;;7.14;57.97;102614.63;5088750;28;20039;-43
2023/03/25 09:58:46;;;;;;;6.07;1.70;;;;;;;7.29;58.19;102601.75;5106152;28;20042;-42
2023/03/25 10:02:09;;;;;;;6.22;1.60;;;;;;;7.22;57.58;102597.94;5083766;28;20091;-42
2023/03/25 10:05:01;;;;;;;10.00;2.15;;;;;;;7.18;58.79;102593.91;5045992;28;20040;-42
2023/03/25 10:07:49;;;;;;;8.73;2.05;;;;;;;7.18;57.33;102601.91;5032186;28;20044;-41
2023/03/25 10:10:28;;;;;;;5.97;2.35;;;;;;;7.09;57.41;102580.44;5085506;28;20055;-42
2023/03/25 10:13:12;;;;;;;10.65;1.83;;;;;;;7.05;57.89;102579.06;5077490;28;20056;-41
2023/03/25 10:16:05;;;;;;;7.22;1.95;;;;;;;7.02;58.03;102589.13;5092186;28;20028;-41
2023/03/25 10:18:59;;;;;;;6.28;1.70;;;;;;;6.93;58.46;102579.31;5081501;28;20028;-43
2023/03/25 10:21:41;;;;;;;4.63;1.40;;;;;;;7.12;57.68;102582.81;5074223;28;20077;-42
2023/03/25 10:24:29;;;;;;;5.60;1.90;;;;;;;7.09;57.86;102591.09;5084964;28;20024;-44
2023/03/25 10:26:58;;;;;;;8.25;2.05;;;;;;;7.03;58.04;102583.66;5076772;28;20039;-42
2023/03/25 10:29:50;;;;;;;4.88;1.50;;;;;;;7.00;57.86;102586.63;5074274;28;20067;-43
2023/03/25 10:32:28;;;;;;;4.85;2.00;;;;;;;6.95;58.31;102594.19;5087513;28;20443;-44
2023/03/25 10:34:56;;;;;;;5.88;1.80;;;;;;;7.01;57.74;102588.28;5102144;28;20392;-42
2023/03/25 10:37:30;;;;;;;5.63;1.70;;;;;;;6.97;57.57;102584.22;5086110;28;20464;-43
2023/03/25 10:40:35;;;;;;;9.20;2.03;;;;;;;6.90;58.00;102593.75;5074094;28;20028;-43
2023/03/25 10:43:22;;;;;;;8.57;1.90;;;;;;;6.96;58.23;102590.53;5074014;28;20393;-42
2023/03/25 10:45:53;;;;;;;5.90;1.73;;;;;;;6.86;58.62;102589.69;5087145;28;20032;-43
2023/03/25 10:48:27;;;;;;;4.15;1.45;;;;;;;6.85;58.18;102588.00;5094563;28;20106;-43
2023/03/25 10:51:02;;;;;;;4.50;1.77;;;;;;;6.89;58.29;102589.41;5074065;28;20040;-42
2023/03/25 10:53:29;;;;;;;3.10;1.60;;;;;;;6.85;58.09;102582.69;5080065;28;20043;-43
2023/03/25 10:56:03;;;;;;;3.22;1.38;;;;;;;6.76;58.76;102588.81;5095182;28;20028;-44
2023/03/25 10:58:31;;;;;;;4.15;1.63;;;;;;;6.70;58.52;102582.22;5086399;28;20019;-44
2023/03/25 11:01:00;;;;;;;3.95;1.50;;;;;;;6.80;58.03;102580.44;5088673;28;20508;-42
2023/03/25 11:03:33;;;;;;;4.20;1.45;;;;;;;6.79;58.35;102577.91;5082017;28;20031;-42
2023/03/25 11:05:59;;;;;;;6.72;1.52;;;;;;;6.67;58.63;102571.88;5092353;28;20028;-43
2023/03/25 11:08:26;;;;;;;6.38;1.65;;;;;;;6.73;58.32;102574.00;5085983;28;20028;-43
2023/03/25 11:10:57;;;;;;;3.78;1.50;;;;;;;6.73;57.93;102575.81;5073462;28;20136;-42
2023/03/25 11:13:28;;;;;;;3.17;1.40;;;;;;;6.68;58.14;102575.38;5089766;28;20184;-42
2023/03/25 11:16:01;;;;;;;6.75;1.40;;;;;;;6.74;57.69;102577.47;5081367;28;20036;-42
2023/03/25 11:18:47;;;;;;;6.75;1.67;;;;;;;6.72;58.10;102572.31;5090078;28;20020;-41
2023/03/25 11:21:14;;;;;;;3.50;1.67;;;;;;;6.61;58.03;102575.09;5073359;28;20021;-42
2023/03/25 11:23:48;;;;;;;6.45;2.00;;;;;;;6.57;58.59;102568.34;5076989;28;20404;-44
2023/03/25 11:26:35;;;;;;;3.13;1.48;;;;;;;6.63;58.77;102578.44;5093070;28;20051;-41
2023/03/25 11:29:20;;;;;;;5.82;1.35;;;;;;;6.58;57.81;102570.03;5088767;28;20040;-41
2023/03/25 11:32:12;;;;;;;3.30;1.35;;;;;;;6.51;57.64;102574.22;5084125;28;20099;-42
2023/03/25 11:34:40;;;;;;;8.98;2.17;;;;;;;6.47;58.14;102578.13;5081038;28;20509;-42
2023/03/25 11:37:16;;;;;;;4.50;1.50;;;;;;;6.36;58.36;102579.09;5072474;28;20040;-42
2023/03/25 11:39:54;;;;;;;4.30;1.55;;;;;;;6.56;56.81;102579.97;5081009;28;20023;-42
2023/03/25 11:42:28;;;;;;;4.18;1.75;;;;;;;6.38;57.23;102574.47;5080408;28;20548;-41
2023/03/25 11:44:58;;;;;;;6.38;1.60;;;;;;;6.44;56.61;102581.91;5089899;28;20024;-42
2023/03/25 11:47:36;;;;;;;5.82;1.38;;;;;;;6.30;57.61;102583.13;5076892;28;20036;-43
2023/03/25 11:50:04;;;;;;;3.35;1.67;;;;;;;6.37;57.63;102582.59;5073045;28;20104;-43
2023/03/25 11:52:43;;;;;;;5.63;1.52;;;;;;;6.41;57.36;102582.19;5086556;28;20074;-41